sensor_id;sensor_type;location;lat;lon;timestamp;temperature;humidity
63317;DHT22;49822;41.468;13.560;2023-01-08T00:01:18;9.50;89.90
63317;DHT22;49822;41.468;13.560;2023-01-08T00:03:45;9.60;89.60
63317;DHT22;49822;41.468;13.560;2023-01-08T00:06:15;9.70;89.50
63317;DHT22;49822;41.468;13.560;2023-01-08T00:08:44;9.80;89.30
63317;DHT22;49822;41.468;13.560;2023-01-08T00:11:12;9.70;88.40
63317;DHT22;49822;41.468;13.560;2023-01-08T00:13:40;9.70;88.70
63317;DHT22;49822;41.468;13.560;2023-01-08T00:16:13;9.70;88.60
63317;DHT22;49822;41.468;13.560;2023-01-08T00:18:42;9.80;88.60
63317;DHT22;49822;41.468;13.560;2023-01-08T00:21:10;9.80;88.00
63317;DHT22;49822;41.468;13.560;2023-01-08T00:23:37;9.70;88.00
63317;DHT22;49822;41.468;13.560;2023-01-08T00:26:07;9.70;88.50
63317;DHT22;49822;41.468;13.560;2023-01-08T00:28:35;9.80;88.60
63317;DHT22;49822;41.468;13.560;2023-01-08T00:31:04;9.90;88.30
63317;DHT22;49822;41.468;13.560;2023-01-08T00:33:33;10.00;88.00
63317;DHT22;49822;41.468;13.560;2023-01-08T00:36:10;9.90;87.70
63317;DHT22;49822;41.468;13.560;2023-01-08T00:38:38;9.90;87.70
63317;DHT22;49822;41.468;13.560;2023-01-08T00:41:07;9.90;87.40
63317;DHT22;49822;41.468;13.560;2023-01-08T00:43:35;9.80;87.80
63317;DHT22;49822;41.468;13.560;2023-01-08T00:46:03;9.90;87.80
63317;DHT22;49822;41.468;13.560;2023-01-08T00:48:31;9.90;87.40
63317;DHT22;49822;41.468;13.560;2023-01-08T00:51:05;9.90;87.50
63317;DHT22;49822;41.468;13.560;2023-01-08T00:53:33;10.00;87.50
63317;DHT22;49822;41.468;13.560;2023-01-08T00:56:06;10.00;87.50
63317;DHT22;49822;41.468;13.560;2023-01-08T00:58:35;9.80;86.80
63317;DHT22;49822;41.468;13.560;2023-01-08T01:01:10;9.50;88.30
63317;DHT22;49822;41.468;13.560;2023-01-08T01:03:40;9.40;89.40
63317;DHT22;49822;41.468;13.560;2023-01-08T01:06:09;9.50;89.80
63317;DHT22;49822;41.468;13.560;2023-01-08T01:08:37;9.60;89.50
63317;DHT22;49822;41.468;13.560;2023-01-08T01:11:20;9.60;89.30
63317;DHT22;49822;41.468;13.560;2023-01-08T01:13:50;9.70;89.00
63317;DHT22;49822;41.468;13.560;2023-01-08T01:16:18;9.80;88.60
63317;DHT22;49822;41.468;13.560;2023-01-08T01:18:46;9.90;87.80
63317;DHT22;49822;41.468;13.560;2023-01-08T01:21:24;9.80;87.60
63317;DHT22;49822;41.468;13.560;2023-01-08T01:23:59;9.80;87.70
63317;DHT22;49822;41.468;13.560;2023-01-08T01:26:28;9.80;87.50
63317;DHT22;49822;41.468;13.560;2023-01-08T01:28:58;10.00;87.60
63317;DHT22;49822;41.468;13.560;2023-01-08T01:31:27;10.00;87.20
63317;DHT22;49822;41.468;13.560;2023-01-08T01:33:55;10.00;87.30
63317;DHT22;49822;41.468;13.560;2023-01-08T01:36:24;10.00;87.20
63317;DHT22;49822;41.468;13.560;2023-01-08T01:38:54;10.00;86.60
63317;DHT22;49822;41.468;13.560;2023-01-08T01:41:37;9.80;86.50
63317;DHT22;49822;41.468;13.560;2023-01-08T01:47:22;9.80;87.50
63317;DHT22;49822;41.468;13.560;2023-01-08T01:52:28;9.50;88.10
63317;DHT22;49822;41.468;13.560;2023-01-08T01:54:56;9.40;88.50
63317;DHT22;49822;41.468;13.560;2023-01-08T01:57:25;9.00;87.90
63317;DHT22;49822;41.468;13.560;2023-01-08T01:59:54;8.90;89.30
63317;DHT22;49822;41.468;13.560;2023-01-08T02:02:22;9.00;89.70
63317;DHT22;49822;41.468;13.560;2023-01-08T02:04:50;9.00;90.10
63317;DHT22;49822;41.468;13.560;2023-01-08T02:07:47;9.10;90.00
63317;DHT22;49822;41.468;13.560;2023-01-08T02:13:12;8.80;90.40
63317;DHT22;49822;41.468;13.560;2023-01-08T02:15:50;8.40;90.00
63317;DHT22;49822;41.468;13.560;2023-01-08T02:21:26;8.30;93.00
63317;DHT22;49822;41.468;13.560;2023-01-08T02:28:54;8.20;91.60
63317;DHT22;49822;41.468;13.560;2023-01-08T02:31:24;8.00;91.90
63317;DHT22;49822;41.468;13.560;2023-01-08T02:33:53;8.10;93.40
63317;DHT22;49822;41.468;13.560;2023-01-08T02:41:42;8.10;92.30
63317;DHT22;49822;41.468;13.560;2023-01-08T02:44:21;8.30;92.30
63317;DHT22;49822;41.468;13.560;2023-01-08T02:46:54;8.10;90.40
63317;DHT22;49822;41.468;13.560;2023-01-08T02:49:25;8.10;90.10
63317;DHT22;49822;41.468;13.560;2023-01-08T02:51:57;7.90;91.20
63317;DHT22;49822;41.468;13.560;2023-01-08T02:54:30;8.00;91.10
63317;DHT22;49822;41.468;13.560;2023-01-08T02:57:09;7.80;92.00
63317;DHT22;49822;41.468;13.560;2023-01-08T02:59:40;8.00;92.50
63317;DHT22;49822;41.468;13.560;2023-01-08T03:02:10;8.00;91.40
63317;DHT22;49822;41.468;13.560;2023-01-08T03:04:48;8.00;91.90
63317;DHT22;49822;41.468;13.560;2023-01-08T03:07:17;8.10;91.20
63317;DHT22;49822;41.468;13.560;2023-01-08T03:09:45;8.10;90.80
63317;DHT22;49822;41.468;13.560;2023-01-08T03:12:24;8.20;90.90
63317;DHT22;49822;41.468;13.560;2023-01-08T03:15:02;8.30;90.50
63317;DHT22;49822;41.468;13.560;2023-01-08T03:17:38;8.30;89.80
63317;DHT22;49822;41.468;13.560;2023-01-08T03:20:16;8.30;89.10
63317;DHT22;49822;41.468;13.560;2023-01-08T03:22:48;8.20;88.40
63317;DHT22;49822;41.468;13.560;2023-01-08T03:25:19;7.70;89.50
63317;DHT22;49822;41.468;13.560;2023-01-08T03:27:51;7.70;91.00
63317;DHT22;49822;41.468;13.560;2023-01-08T03:30:24;7.80;91.60
63317;DHT22;49822;41.468;13.560;2023-01-08T03:32:59;8.00;92.00
63317;DHT22;49822;41.468;13.560;2023-01-08T03:35:28;8.00;91.60
63317;DHT22;49822;41.468;13.560;2023-01-08T03:38:05;8.00;90.70
63317;DHT22;49822;41.468;13.560;2023-01-08T03:40:39;8.00;89.80
63317;DHT22;49822;41.468;13.560;2023-01-08T03:43:07;7.70;89.80
63317;DHT22;49822;41.468;13.560;2023-01-08T03:45:37;7.30;90.90
63317;DHT22;49822;41.468;13.560;2023-01-08T03:48:10;7.50;92.70
63317;DHT22;49822;41.468;13.560;2023-01-08T03:50:39;7.80;93.80
63317;DHT22;49822;41.468;13.560;2023-01-08T03:53:08;7.80;93.00
63317;DHT22;49822;41.468;13.560;2023-01-08T03:55:37;7.90;92.80
63317;DHT22;49822;41.468;13.560;2023-01-08T03:58:04;8.00;92.40
63317;DHT22;49822;41.468;13.560;2023-01-08T04:00:33;8.00;91.80
63317;DHT22;49822;41.468;13.560;2023-01-08T04:03:04;7.80;89.10
63317;DHT22;49822;41.468;13.560;2023-01-08T04:05:32;7.40;89.90
63317;DHT22;49822;41.468;13.560;2023-01-08T04:08:00;7.40;91.20
63317;DHT22;49822;41.468;13.560;2023-01-08T04:10:28;7.50;91.80
63317;DHT22;49822;41.468;13.560;2023-01-08T04:13:02;7.60;91.90
63317;DHT22;49822;41.468;13.560;2023-01-08T04:15:32;7.40;91.00
63317;DHT22;49822;41.468;13.560;2023-01-08T04:18:05;7.40;92.00
63317;DHT22;49822;41.468;13.560;2023-01-08T04:20:33;7.50;92.30
63317;DHT22;49822;41.468;13.560;2023-01-08T04:23:00;7.60;91.80
63317;DHT22;49822;41.468;13.560;2023-01-08T04:25:28;7.50;89.80
63317;DHT22;49822;41.468;13.560;2023-01-08T04:27:55;7.50;89.40
63317;DHT22;49822;41.468;13.560;2023-01-08T04:30:26;7.50;90.10
63317;DHT22;49822;41.468;13.560;2023-01-08T04:32:57;7.60;90.50
63317;DHT22;49822;41.468;13.560;2023-01-08T04:35:25;7.70;90.60
63317;DHT22;49822;41.468;13.560;2023-01-08T04:37:53;7.70;90.10
63317;DHT22;49822;41.468;13.560;2023-01-08T04:40:20;7.50;89.20
63317;DHT22;49822;41.468;13.560;2023-01-08T04:42:49;7.50;89.40
63317;DHT22;49822;41.468;13.560;2023-01-08T04:45:18;7.10;89.00
63317;DHT22;49822;41.468;13.560;2023-01-08T04:47:57;7.20;90.70
63317;DHT22;49822;41.468;13.560;2023-01-08T04:50:25;7.40;91.40
63317;DHT22;49822;41.468;13.560;2023-01-08T04:52:53;7.50;91.30
63317;DHT22;49822;41.468;13.560;2023-01-08T04:55:20;7.40;89.30
63317;DHT22;49822;41.468;13.560;2023-01-08T04:57:48;7.20;89.20
63317;DHT22;49822;41.468;13.560;2023-01-08T05:00:16;7.20;90.50
63317;DHT22;49822;41.468;13.560;2023-01-08T05:02:50;7.30;91.00
63317;DHT22;49822;41.468;13.560;2023-01-08T05:05:17;7.50;91.00
63317;DHT22;49822;41.468;13.560;2023-01-08T05:07:45;7.60;90.70
63317;DHT22;49822;41.468;13.560;2023-01-08T05:10:13;7.70;89.90
63317;DHT22;49822;41.468;13.560;2023-01-08T05:12:41;7.80;88.90
63317;DHT22;49822;41.468;13.560;2023-01-08T05:15:09;7.80;87.70
63317;DHT22;49822;41.468;13.560;2023-01-08T05:17:37;7.50;87.50
63317;DHT22;49822;41.468;13.560;2023-01-08T05:20:06;7.40;87.40
63317;DHT22;49822;41.468;13.560;2023-01-08T05:22:34;7.20;88.50
63317;DHT22;49822;41.468;13.560;2023-01-08T05:25:03;7.20;89.80
63317;DHT22;49822;41.468;13.560;2023-01-08T05:27:32;7.40;90.70
63317;DHT22;49822;41.468;13.560;2023-01-08T05:29:59;7.50;90.90
63317;DHT22;49822;41.468;13.560;2023-01-08T05:32:27;7.30;87.20
63317;DHT22;49822;41.468;13.560;2023-01-08T05:34:54;7.00;87.50
63317;DHT22;49822;41.468;13.560;2023-01-08T05:37:22;7.00;88.80
63317;DHT22;49822;41.468;13.560;2023-01-08T05:39:50;7.20;89.60
63317;DHT22;49822;41.468;13.560;2023-01-08T05:42:17;7.20;89.40
63317;DHT22;49822;41.468;13.560;2023-01-08T05:44:45;7.20;89.40
63317;DHT22;49822;41.468;13.560;2023-01-08T05:47:12;7.30;89.10
63317;DHT22;49822;41.468;13.560;2023-01-08T05:49:39;7.20;88.90
63317;DHT22;49822;41.468;13.560;2023-01-08T05:52:07;7.00;87.30
63317;DHT22;49822;41.468;13.560;2023-01-08T05:54:34;6.80;87.60
63317;DHT22;49822;41.468;13.560;2023-01-08T05:57:03;6.70;89.20
63317;DHT22;49822;41.468;13.560;2023-01-08T05:59:30;6.80;90.00
63317;DHT22;49822;41.468;13.560;2023-01-08T06:01:58;6.90;89.10
63317;DHT22;49822;41.468;13.560;2023-01-08T06:04:26;7.00;88.90
63317;DHT22;49822;41.468;13.560;2023-01-08T06:06:53;7.00;87.10
63317;DHT22;49822;41.468;13.560;2023-01-08T06:09:21;6.80;87.90
63317;DHT22;49822;41.468;13.560;2023-01-08T06:11:50;6.90;89.00
63317;DHT22;49822;41.468;13.560;2023-01-08T06:14:19;7.00;89.10
63317;DHT22;49822;41.468;13.560;2023-01-08T06:16:46;7.20;89.10
63317;DHT22;49822;41.468;13.560;2023-01-08T06:19:13;7.20;89.20
63317;DHT22;49822;41.468;13.560;2023-01-08T06:21:41;7.30;89.40
63317;DHT22;49822;41.468;13.560;2023-01-08T06:24:08;7.20;89.10
63317;DHT22;49822;41.468;13.560;2023-01-08T06:26:36;6.80;86.50
63317;DHT22;49822;41.468;13.560;2023-01-08T06:29:04;6.40;89.40
63317;DHT22;49822;41.468;13.560;2023-01-08T06:31:32;6.50;90.80
63317;DHT22;49822;41.468;13.560;2023-01-08T06:33:59;6.50;91.00
63317;DHT22;49822;41.468;13.560;2023-01-08T06:36:27;6.50;91.90
63317;DHT22;49822;41.468;13.560;2023-01-08T06:38:54;6.70;92.30
63317;DHT22;49822;41.468;13.560;2023-01-08T06:41:23;6.90;92.30
63317;DHT22;49822;41.468;13.560;2023-01-08T06:43:50;7.00;91.90
63317;DHT22;49822;41.468;13.560;2023-01-08T06:46:18;7.00;91.30
63317;DHT22;49822;41.468;13.560;2023-01-08T06:48:46;7.00;91.30
63317;DHT22;49822;41.468;13.560;2023-01-08T06:51:14;6.90;91.50
63317;DHT22;49822;41.468;13.560;2023-01-08T06:53:42;6.80;91.00
63317;DHT22;49822;41.468;13.560;2023-01-08T06:56:10;6.60;91.10
63317;DHT22;49822;41.468;13.560;2023-01-08T06:58:37;6.60;91.80
63317;DHT22;49822;41.468;13.560;2023-01-08T07:01:06;6.80;91.90
63317;DHT22;49822;41.468;13.560;2023-01-08T07:03:33;7.00;91.70
63317;DHT22;49822;41.468;13.560;2023-01-08T07:06:01;7.00;90.40
63317;DHT22;49822;41.468;13.560;2023-01-08T07:08:30;7.10;90.00
63317;DHT22;49822;41.468;13.560;2023-01-08T07:11:04;7.10;88.90
63317;DHT22;49822;41.468;13.560;2023-01-08T07:13:32;7.20;89.40
63317;DHT22;49822;41.468;13.560;2023-01-08T07:16:10;7.30;88.80
63317;DHT22;49822;41.468;13.560;2023-01-08T07:18:39;7.00;87.40
63317;DHT22;49822;41.468;13.560;2023-01-08T07:21:07;7.20;89.10
63317;DHT22;49822;41.468;13.560;2023-01-08T07:23:35;7.30;89.60
63317;DHT22;49822;41.468;13.560;2023-01-08T07:26:08;7.50;89.20
63317;DHT22;49822;41.468;13.560;2023-01-08T07:28:36;7.50;88.70
63317;DHT22;49822;41.468;13.560;2023-01-08T07:31:05;7.80;88.70
63317;DHT22;49822;41.468;13.560;2023-01-08T07:33:36;7.90;87.80
63317;DHT22;49822;41.468;13.560;2023-01-08T07:36:04;8.00;87.20
63317;DHT22;49822;41.468;13.560;2023-01-08T07:38:35;8.10;86.60
63317;DHT22;49822;41.468;13.560;2023-01-08T07:41:02;8.20;86.00
63317;DHT22;49822;41.468;13.560;2023-01-08T07:43:31;8.30;85.60
63317;DHT22;49822;41.468;13.560;2023-01-08T07:46:01;8.30;84.60
63317;DHT22;49822;41.468;13.560;2023-01-08T07:48:31;8.10;83.20
63317;DHT22;49822;41.468;13.560;2023-01-08T07:51:03;7.90;84.50
63317;DHT22;49822;41.468;13.560;2023-01-08T07:53:32;7.90;86.90
63317;DHT22;49822;41.468;13.560;2023-01-08T07:56:05;8.20;87.70
63317;DHT22;49822;41.468;13.560;2023-01-08T07:58:33;8.40;86.80
63317;DHT22;49822;41.468;13.560;2023-01-08T08:01:06;8.50;85.90
63317;DHT22;49822;41.468;13.560;2023-01-08T08:03:34;8.60;84.80
63317;DHT22;49822;41.468;13.560;2023-01-08T08:06:02;8.60;83.90
63317;DHT22;49822;41.468;13.560;2023-01-08T08:08:29;8.60;83.50
63317;DHT22;49822;41.468;13.560;2023-01-08T08:10:56;8.90;83.20
63317;DHT22;49822;41.468;13.560;2023-01-08T08:13:25;9.20;82.50
63317;DHT22;49822;41.468;13.560;2023-01-08T08:15:52;9.40;81.60
63317;DHT22;49822;41.468;13.560;2023-01-08T08:18:21;9.60;80.80
63317;DHT22;49822;41.468;13.560;2023-01-08T08:20:49;9.70;80.90
63317;DHT22;49822;41.468;13.560;2023-01-08T08:23:18;9.60;80.90
63317;DHT22;49822;41.468;13.560;2023-01-08T08:25:45;9.60;81.40
63317;DHT22;49822;41.468;13.560;2023-01-08T08:28:12;9.40;82.40
63317;DHT22;49822;41.468;13.560;2023-01-08T08:30:42;9.20;83.20
63317;DHT22;49822;41.468;13.560;2023-01-08T08:33:11;9.20;84.10
63317;DHT22;49822;41.468;13.560;2023-01-08T08:35:39;9.10;83.80
63317;DHT22;49822;41.468;13.560;2023-01-08T08:38:07;9.00;84.10
63317;DHT22;49822;41.468;13.560;2023-01-08T08:40:35;9.10;84.40
63317;DHT22;49822;41.468;13.560;2023-01-08T08:43:04;9.20;84.40
63317;DHT22;49822;41.468;13.560;2023-01-08T08:45:33;9.50;83.90
63317;DHT22;49822;41.468;13.560;2023-01-08T08:48:05;9.80;82.30
63317;DHT22;49822;41.468;13.560;2023-01-08T08:50:34;10.10;82.30
63317;DHT22;49822;41.468;13.560;2023-01-08T08:53:03;10.50;81.60
63317;DHT22;49822;41.468;13.560;2023-01-08T08:55:32;10.90;80.40
63317;DHT22;49822;41.468;13.560;2023-01-08T08:58:06;11.10;79.20
63317;DHT22;49822;41.468;13.560;2023-01-08T09:00:34;11.40;77.80
63317;DHT22;49822;41.468;13.560;2023-01-08T09:03:04;11.40;77.90
63317;DHT22;49822;41.468;13.560;2023-01-08T09:05:36;11.50;78.30
63317;DHT22;49822;41.468;13.560;2023-01-08T09:08:03;11.70;77.20
63317;DHT22;49822;41.468;13.560;2023-01-08T09:10:31;11.90;76.80
63317;DHT22;49822;41.468;13.560;2023-01-08T09:12:58;12.20;75.90
63317;DHT22;49822;41.468;13.560;2023-01-08T09:15:28;12.80;74.70
63317;DHT22;49822;41.468;13.560;2023-01-08T09:17:56;13.10;73.50
63317;DHT22;49822;41.468;13.560;2023-01-08T09:20:26;13.60;71.70
63317;DHT22;49822;41.468;13.560;2023-01-08T09:22:53;14.30;69.20
63317;DHT22;49822;41.468;13.560;2023-01-08T09:25:21;15.40;66.20
63317;DHT22;49822;41.468;13.560;2023-01-08T09:28:00;16.70;61.50
63317;DHT22;49822;41.468;13.560;2023-01-08T09:30:29;18.00;57.90
63317;DHT22;49822;41.468;13.560;2023-01-08T09:33:01;18.70;55.50
63317;DHT22;49822;41.468;13.560;2023-01-08T09:35:31;19.70;52.50
63317;DHT22;49822;41.468;13.560;2023-01-08T09:37:59;20.50;49.90
63317;DHT22;49822;41.468;13.560;2023-01-08T09:40:41;21.70;47.60
63317;DHT22;49822;41.468;13.560;2023-01-08T09:43:15;22.50;45.30
63317;DHT22;49822;41.468;13.560;2023-01-08T09:45:49;22.80;45.00
63317;DHT22;49822;41.468;13.560;2023-01-08T09:48:19;23.30;44.00
63317;DHT22;49822;41.468;13.560;2023-01-08T09:50:51;23.80;42.70
63317;DHT22;49822;41.468;13.560;2023-01-08T09:53:19;24.10;41.30
63317;DHT22;49822;41.468;13.560;2023-01-08T09:55:54;23.90;41.90
63317;DHT22;49822;41.468;13.560;2023-01-08T09:58:43;24.20;41.80
63317;DHT22;49822;41.468;13.560;2023-01-08T10:01:22;24.90;40.60
63317;DHT22;49822;41.468;13.560;2023-01-08T10:04:17;25.60;38.40
63317;DHT22;49822;41.468;13.560;2023-01-08T10:07:05;25.30;39.70
63317;DHT22;49822;41.468;13.560;2023-01-08T10:09:38;25.60;38.80
63317;DHT22;49822;41.468;13.560;2023-01-08T10:12:08;26.10;38.00
63317;DHT22;49822;41.468;13.560;2023-01-08T10:14:39;26.30;38.10
63317;DHT22;49822;41.468;13.560;2023-01-08T10:17:36;26.60;37.90
63317;DHT22;49822;41.468;13.560;2023-01-08T10:20:22;26.60;36.80
63317;DHT22;49822;41.468;13.560;2023-01-08T10:22:52;25.70;38.70
63317;DHT22;49822;41.468;13.560;2023-01-08T10:25:26;25.80;38.80
63317;DHT22;49822;41.468;13.560;2023-01-08T10:27:58;26.20;37.70
63317;DHT22;49822;41.468;13.560;2023-01-08T10:33:10;27.00;37.30
63317;DHT22;49822;41.468;13.560;2023-01-08T10:35:40;27.00;36.80
63317;DHT22;49822;41.468;13.560;2023-01-08T10:38:40;27.50;36.00
63317;DHT22;49822;41.468;13.560;2023-01-08T10:41:11;25.50;38.40
63317;DHT22;49822;41.468;13.560;2023-01-08T10:46:26;21.40;46.50
63317;DHT22;49822;41.468;13.560;2023-01-08T10:48:58;21.00;46.90
63317;DHT22;49822;41.468;13.560;2023-01-08T10:51:30;21.70;45.40
63317;DHT22;49822;41.468;13.560;2023-01-08T10:54:11;23.20;43.70
63317;DHT22;49822;41.468;13.560;2023-01-08T10:56:43;25.00;39.90
63317;DHT22;49822;41.468;13.560;2023-01-08T10:59:19;26.30;37.60
63317;DHT22;49822;41.468;13.560;2023-01-08T11:01:48;26.70;37.00
63317;DHT22;49822;41.468;13.560;2023-01-08T11:04:35;26.70;36.70
63317;DHT22;49822;41.468;13.560;2023-01-08T11:07:06;26.00;38.10
63317;DHT22;49822;41.468;13.560;2023-01-08T11:09:44;26.70;37.10
63317;DHT22;49822;41.468;13.560;2023-01-08T11:14:53;26.50;37.10
63317;DHT22;49822;41.468;13.560;2023-01-08T11:17:23;25.20;38.10
63317;DHT22;49822;41.468;13.560;2023-01-08T11:19:52;23.10;41.30
63317;DHT22;49822;41.468;13.560;2023-01-08T11:22:23;21.80;44.50
63317;DHT22;49822;41.468;13.560;2023-01-08T11:24:53;21.40;46.10
63317;DHT22;49822;41.468;13.560;2023-01-08T11:27:22;21.70;44.80
63317;DHT22;49822;41.468;13.560;2023-01-08T11:30:16;21.10;45.90
63317;DHT22;49822;41.468;13.560;2023-01-08T11:33:08;21.10;46.40
63317;DHT22;49822;41.468;13.560;2023-01-08T11:35:39;21.00;46.00
63317;DHT22;49822;41.468;13.560;2023-01-08T11:38:11;20.50;47.70
63317;DHT22;49822;41.468;13.560;2023-01-08T11:44:03;18.40;50.80
63317;DHT22;49822;41.468;13.560;2023-01-08T11:49:38;17.80;54.40
63317;DHT22;49822;41.468;13.560;2023-01-08T11:52:40;17.60;53.50
63317;DHT22;49822;41.468;13.560;2023-01-08T11:58:21;16.60;57.40
63317;DHT22;49822;41.468;13.560;2023-01-08T12:01:02;16.30;58.30
63317;DHT22;49822;41.468;13.560;2023-01-08T12:06:25;16.00;60.30
63317;DHT22;49822;41.468;13.560;2023-01-08T12:09:17;16.00;60.50
63317;DHT22;49822;41.468;13.560;2023-01-08T12:11:57;16.00;60.90
63317;DHT22;49822;41.468;13.560;2023-01-08T12:14:57;16.10;60.90
63317;DHT22;49822;41.468;13.560;2023-01-08T12:17:39;16.10;59.60
63317;DHT22;49822;41.468;13.560;2023-01-08T12:28:57;16.10;60.70
63317;DHT22;49822;41.468;13.560;2023-01-08T12:37:05;16.10;61.20
63317;DHT22;49822;41.468;13.560;2023-01-08T12:40:25;16.10;60.30
63317;DHT22;49822;41.468;13.560;2023-01-08T12:42:38;16.00;61.30
63317;DHT22;49822;41.468;13.560;2023-01-08T12:45:23;15.80;62.00
63317;DHT22;49822;41.468;13.560;2023-01-08T12:48:06;15.80;62.20
63317;DHT22;49822;41.468;13.560;2023-01-08T12:53:56;15.60;63.20
63317;DHT22;49822;41.468;13.560;2023-01-08T12:59:38;15.20;63.90
63317;DHT22;49822;41.468;13.560;2023-01-08T13:02:34;15.00;65.20
63317;DHT22;49822;41.468;13.560;2023-01-08T13:07:55;15.00;65.90
63317;DHT22;49822;41.468;13.560;2023-01-08T13:10:39;15.10;65.50
63317;DHT22;49822;41.468;13.560;2023-01-08T13:13:56;15.10;64.90
63317;DHT22;49822;41.468;13.560;2023-01-08T13:16:21;15.10;65.60
63317;DHT22;49822;41.468;13.560;2023-01-08T13:21:37;15.30;66.50
63317;DHT22;49822;41.468;13.560;2023-01-08T13:26:56;15.40;65.40
63317;DHT22;49822;41.468;13.560;2023-01-08T13:29:34;15.30;65.70
63317;DHT22;49822;41.468;13.560;2023-01-08T13:32:09;15.30;65.70
63317;DHT22;49822;41.468;13.560;2023-01-08T13:35:00;15.20;65.70
63317;DHT22;49822;41.468;13.560;2023-01-08T13:37:29;15.20;66.20
63317;DHT22;49822;41.468;13.560;2023-01-08T13:39:57;15.50;64.90
63317;DHT22;49822;41.468;13.560;2023-01-08T13:42:25;15.80;65.00
63317;DHT22;49822;41.468;13.560;2023-01-08T13:45:03;16.00;63.60
63317;DHT22;49822;41.468;13.560;2023-01-08T13:47:40;16.00;63.60
63317;DHT22;49822;41.468;13.560;2023-01-08T13:50:20;15.90;64.00
63317;DHT22;49822;41.468;13.560;2023-01-08T13:53:00;15.80;63.30
63317;DHT22;49822;41.468;13.560;2023-01-08T13:55:37;16.40;63.10
63317;DHT22;49822;41.468;13.560;2023-01-08T13:58:15;16.40;61.70
63317;DHT22;49822;41.468;13.560;2023-01-08T14:00:46;16.20;62.40
63317;DHT22;49822;41.468;13.560;2023-01-08T14:03:24;16.00;61.80
63317;DHT22;49822;41.468;13.560;2023-01-08T14:05:52;15.80;63.30
63317;DHT22;49822;41.468;13.560;2023-01-08T14:08:31;15.40;63.90
63317;DHT22;49822;41.468;13.560;2023-01-08T14:10:59;15.30;65.50
63317;DHT22;49822;41.468;13.560;2023-01-08T14:13:31;15.30;66.50
63317;DHT22;49822;41.468;13.560;2023-01-08T14:16:03;15.20;66.70
63317;DHT22;49822;41.468;13.560;2023-01-08T14:18:31;15.00;67.20
63317;DHT22;49822;41.468;13.560;2023-01-08T14:20:59;15.00;66.90
63317;DHT22;49822;41.468;13.560;2023-01-08T14:23:34;15.00;66.40
63317;DHT22;49822;41.468;13.560;2023-01-08T14:26:05;15.00;67.30
63317;DHT22;49822;41.468;13.560;2023-01-08T14:28:37;15.00;67.20
63317;DHT22;49822;41.468;13.560;2023-01-08T14:31:20;15.00;67.30
63317;DHT22;49822;41.468;13.560;2023-01-08T14:33:49;15.00;67.70
63317;DHT22;49822;41.468;13.560;2023-01-08T14:36:26;15.00;67.20
63317;DHT22;49822;41.468;13.560;2023-01-08T14:38:54;14.90;67.10
63317;DHT22;49822;41.468;13.560;2023-01-08T14:41:34;14.80;67.30
63317;DHT22;49822;41.468;13.560;2023-01-08T14:44:21;14.70;67.80
63317;DHT22;49822;41.468;13.560;2023-01-08T14:47:04;14.70;68.00
63317;DHT22;49822;41.468;13.560;2023-01-08T14:49:34;14.60;67.30
63317;DHT22;49822;41.468;13.560;2023-01-08T14:52:13;14.60;69.10
63317;DHT22;49822;41.468;13.560;2023-01-08T14:54:55;14.50;69.00
63317;DHT22;49822;41.468;13.560;2023-01-08T14:57:26;14.50;69.00
63317;DHT22;49822;41.468;13.560;2023-01-08T14:59:56;14.40;68.30
63317;DHT22;49822;41.468;13.560;2023-01-08T15:02:25;14.30;68.90
63317;DHT22;49822;41.468;13.560;2023-01-08T15:05:46;14.30;69.30
63317;DHT22;49822;41.468;13.560;2023-01-08T15:07:58;14.20;69.90
63317;DHT22;49822;41.468;13.560;2023-01-08T15:13:00;13.80;71.70
63317;DHT22;49822;41.468;13.560;2023-01-08T15:15:32;13.70;72.00
63317;DHT22;49822;41.468;13.560;2023-01-08T15:18:05;13.70;72.20
63317;DHT22;49822;41.468;13.560;2023-01-08T15:20:35;13.60;72.40
63317;DHT22;49822;41.468;13.560;2023-01-08T15:23:02;13.50;72.90
63317;DHT22;49822;41.468;13.560;2023-01-08T15:25:30;13.50;73.10
63317;DHT22;49822;41.468;13.560;2023-01-08T15:28:02;13.50;73.20
63317;DHT22;49822;41.468;13.560;2023-01-08T15:30:42;13.30;74.10
63317;DHT22;49822;41.468;13.560;2023-01-08T15:33:24;12.90;76.10
63317;DHT22;49822;41.468;13.560;2023-01-08T15:35:52;12.80;76.50
63317;DHT22;49822;41.468;13.560;2023-01-08T15:38:20;12.90;76.90
63317;DHT22;49822;41.468;13.560;2023-01-08T15:41:00;12.90;76.10
63317;DHT22;49822;41.468;13.560;2023-01-08T15:43:29;13.00;75.30
63317;DHT22;49822;41.468;13.560;2023-01-08T15:45:56;13.10;75.20
63317;DHT22;49822;41.468;13.560;2023-01-08T15:48:24;13.00;74.40
63317;DHT22;49822;41.468;13.560;2023-01-08T15:50:51;12.50;76.60
63317;DHT22;49822;41.468;13.560;2023-01-08T15:53:20;12.30;77.60
63317;DHT22;49822;41.468;13.560;2023-01-08T15:55:51;12.40;78.30
63317;DHT22;49822;41.468;13.560;2023-01-08T15:58:19;12.50;78.30
63317;DHT22;49822;41.468;13.560;2023-01-08T16:00:48;12.50;76.90
63317;DHT22;49822;41.468;13.560;2023-01-08T16:03:21;12.50;76.70
63317;DHT22;49822;41.468;13.560;2023-01-08T16:05:52;12.50;75.90
63317;DHT22;49822;41.468;13.560;2023-01-08T16:08:19;12.10;76.80
63317;DHT22;49822;41.468;13.560;2023-01-08T16:10:52;12.00;78.10
63317;DHT22;49822;41.468;13.560;2023-01-08T16:13:19;12.10;77.90
63317;DHT22;49822;41.468;13.560;2023-01-08T16:15:47;12.10;77.90
63317;DHT22;49822;41.468;13.560;2023-01-08T16:18:15;11.70;77.00
63317;DHT22;49822;41.468;13.560;2023-01-08T16:20:42;11.00;80.90
63317;DHT22;49822;41.468;13.560;2023-01-08T16:23:11;11.00;81.90
63317;DHT22;49822;41.468;13.560;2023-01-08T16:25:39;11.10;81.40
63317;DHT22;49822;41.468;13.560;2023-01-08T16:28:06;11.40;80.60
63317;DHT22;49822;41.468;13.560;2023-01-08T16:30:38;11.50;80.00
63317;DHT22;49822;41.468;13.560;2023-01-08T16:33:12;11.70;79.40
63317;DHT22;49822;41.468;13.560;2023-01-08T16:35:44;11.80;78.70
63317;DHT22;49822;41.468;13.560;2023-01-08T16:38:21;11.90;78.10
63317;DHT22;49822;41.468;13.560;2023-01-08T16:40:54;11.90;77.60
63317;DHT22;49822;41.468;13.560;2023-01-08T16:43:27;11.70;77.40
63317;DHT22;49822;41.468;13.560;2023-01-08T16:45:55;11.50;79.20
63317;DHT22;49822;41.468;13.560;2023-01-08T16:48:29;11.30;80.10
63317;DHT22;49822;41.468;13.560;2023-01-08T16:51:03;11.00;81.60
63317;DHT22;49822;41.468;13.560;2023-01-08T16:53:33;10.80;82.00
63317;DHT22;49822;41.468;13.560;2023-01-08T16:56:02;10.70;82.30
63317;DHT22;49822;41.468;13.560;2023-01-08T16:58:31;10.60;82.90
63317;DHT22;49822;41.468;13.560;2023-01-08T17:01:05;10.70;82.50
63317;DHT22;49822;41.468;13.560;2023-01-08T17:03:35;10.90;82.30
63317;DHT22;49822;41.468;13.560;2023-01-08T17:06:05;11.00;82.00